KPWKKUGN

Guest
Details From KPWK - Chicago Executive
To KUGN - WAUKEGAN RGNL
Flight Number -
Tags generated
Created
Modified
Stats Distance 19 nm / 36 km
Max Altitude 2,400 ft / 732 m
Waypoints 3
Social Downloads 2
Likes 0
Share VATSIM

Download

Looking for another format? Having issues loading an existing format? Contact us
Advertisement - Login to hide

Notes

Basic altitude profile: - Ascent Rate: 2500ft/min - Ascent Speed: 250kts - Cruise Altitude: 10000ft - Cruise Speed: 420kts - Descent Rate: 1500ft/min - Descent Speed: 250kts Options: - Use NATs: no - Use PACOTS: no - Use low airways: yes - Use high airways: no

Route

KPWK OBK KUGN

ID Type Via Altitude Latitude Longitude Leg Dist Tot Dist Heading (true) Name
O KPWK APT - 0 ft / 0 m 42.11408˚ -87.90135˚ - 0 nm - Chicago Executive
OBK VOR - 2,400 ft / 732 m 42.22139˚ -87.95161˚ 6 nm 6 nm 341° / 341° NORTHBROOK VOR-DME
O KUGN APT - 0 ft / 0 m 42.42240˚ -87.86811˚ 12 nm 19 nm 17° / 17° WAUKEGAN RGNL

Altitude Profile

Advertisement - Login to hide

KPWK

Details ICAO KPWK (PWK)
Name Chicago Executive
Region United States
Timezone America/Chicago (UTC-6.0)
Stats Elevation 647 ft / 197 m (AMSL)
Location 42.114076° -87.901353°
Runways 3
Magnetic Variation 3.757° W

METAR

KPWK 160052Z 24009KT 10SM OVC037 01/M04 A2992 RMK AO2 SLP138 T00111044

Decode

TAF

Not found

Departure Runways

ID Width Length Bearing (true) Bearing (mag) Surface Threshold Offset Overrun Length
06 50 ft / 15 m 3,654 ft / 1,114 m 63.29° 67.05° Asphalt 354 ft / 108 m 0 ft / 0 m
12 75 ft / 23 m 4,379 ft / 1,335 m 118.06° 121.82° Asphalt 289 ft / 88 m 0 ft / 0 m
16 150 ft / 46 m 5,005 ft / 1,525 m 158.67° 162.43° Asphalt 0 ft / 0 m 0 ft / 0 m
24 50 ft / 15 m 3,654 ft / 1,114 m 243.30° 247.06° Asphalt 1,251 ft / 381 m 0 ft / 0 m
30 75 ft / 23 m 4,379 ft / 1,335 m 298.07° 301.83° Asphalt 433 ft / 132 m 0 ft / 0 m
34 150 ft / 46 m 5,005 ft / 1,525 m 338.67° 342.43° Asphalt 0 ft / 0 m 0 ft / 0 m

KUGN

Details ICAO KUGN (UGN)
Name WAUKEGAN RGNL
Region United States
Timezone America/Chicago (UTC-6.0)
Stats Elevation 727 ft / 222 m (AMSL)
Location 42.422401° -87.868107°
Runways 2
Magnetic Variation 3.833° W

METAR

KUGN 160135Z 23006KT 10SM FEW028 BKN034 OVC050 00/M04 A2988 RMK AO2 T00001039

Decode

TAF

Not found

Destination Runways

ID Width Length Bearing (true) Bearing (mag) Surface Threshold Offset Overrun Length
05 150 ft / 46 m 5,994 ft / 1,827 m 48.35° 52.18° Asphalt 0 ft / 0 m 0 ft / 0 m
14 75 ft / 23 m 3,751 ft / 1,143 m 144.30° 148.13° Asphalt 500 ft / 152 m 0 ft / 0 m
23 150 ft / 46 m 5,994 ft / 1,827 m 228.36° 232.19° Asphalt 0 ft / 0 m 0 ft / 0 m
32 75 ft / 23 m 3,751 ft / 1,143 m 324.30° 328.13° Asphalt 0 ft / 0 m 0 ft / 0 m

Approach Navaids

Runway Type Ident Frequency Range Bearing (true) Bearing (mag) Slope Elevation
23 Localiser IUGN 110.70 MHz 18 nm / 33 km 228.35° 232.18° - 727 ft / 222 m (AMSL)
23 Glidescope IUGN 110.70 MHz 10 nm / 19 km 228.35° 232.18° 3.00° 716 ft / 218 m (AMSL)

Popular Alternatives